Time;durP1;ratioP1;P1;durP2;ratioP2;P2;SDS_P1;SDS_P2;PMS_P1;PMS_P2;Temp;Humidity;BMP_temperature;BMP_pressure;BME280_temperature;BME280_humidity;BME280_pressure;Samples;Min_cycle;Max_cycle;Signal;HPM_P1;HPM_P2
2020/12/29 00:01:45;;;;;;;30.88;16.33;;;;;;;-1.02;100.00;97958.13;4950755;28;20027;-65
2020/12/29 00:04:19;;;;;;;35.97;16.10;;;;;;;-0.94;100.00;97953.72;4950387;28;20062;-65
2020/12/29 00:06:53;;;;;;;35.27;18.07;;;;;;;-0.86;100.00;97966.84;4949688;28;20082;-64
2020/12/29 00:09:20;;;;;;;38.17;19.05;;;;;;;-0.77;100.00;97966.88;4950308;29;20318;-65
2020/12/29 00:11:48;;;;;;;36.83;18.42;;;;;;;-0.70;100.00;97967.84;4950096;29;20496;-65
2020/12/29 00:14:14;;;;;;;39.28;19.02;;;;;;;-0.65;100.00;97968.19;4949973;29;20111;-66
2020/12/29 00:16:40;;;;;;;41.55;20.05;;;;;;;-0.60;100.00;97971.16;4949487;28;20439;-65
2020/12/29 00:19:11;;;;;;;46.75;20.13;;;;;;;-0.54;100.00;97970.50;4950117;28;20485;-65
2020/12/29 00:21:38;;;;;;;36.53;18.80;;;;;;;-0.45;100.00;97969.50;4937937;28;20038;-65
2020/12/29 00:24:03;;;;;;;35.50;18.70;;;;;;;-0.40;100.00;97969.81;4949923;29;20045;-65
2020/12/29 00:26:29;;;;;;;31.85;16.73;;;;;;;-0.35;100.00;97978.03;4949555;28;20547;-65
2020/12/29 00:28:55;;;;;;;30.88;15.95;;;;;;;-0.27;100.00;97979.81;4949804;29;20435;-66
2020/12/29 00:31:21;;;;;;;30.83;15.77;;;;;;;-0.19;100.00;97979.00;4943534;29;20020;-65
2020/12/29 00:33:48;;;;;;;34.45;16.52;;;;;;;-0.15;100.00;97980.28;4943798;29;20033;-65
2020/12/29 00:36:15;;;;;;;30.08;14.68;;;;;;;-0.08;100.00;97982.09;4949691;29;20038;-65
2020/12/29 00:38:40;;;;;;;32.00;14.60;;;;;;;-0.03;100.00;97985.06;4948735;28;20046;-65
2020/12/29 00:41:09;;;;;;;31.33;16.02;;;;;;;0.01;100.00;97990.00;4949567;29;20261;-65
2020/12/29 00:43:36;;;;;;;25.95;14.15;;;;;;;0.07;100.00;97989.31;4949328;28;20528;-65
2020/12/29 00:46:10;;;;;;;26.83;13.95;;;;;;;0.05;100.00;97989.50;4950378;28;20470;-65
2020/12/29 00:48:35;;;;;;;27.70;14.77;;;;;;;0.09;100.00;97989.94;4949158;29;20166;-65
2020/12/29 00:51:03;;;;;;;27.20;13.73;;;;;;;0.13;100.00;97992.09;4950271;29;20543;-65
2020/12/29 00:53:29;;;;;;;28.13;14.18;;;;;;;0.15;100.00;97989.28;4949073;29;20394;-65
2020/12/29 00:55:55;;;;;;;30.27;15.30;;;;;;;0.19;100.00;97994.03;4950183;28;20023;-65
2020/12/29 00:58:20;;;;;;;27.98;15.25;;;;;;;0.23;100.00;97990.06;4950009;29;20027;-65
2020/12/29 01:00:46;;;;;;;25.60;14.13;;;;;;;0.23;100.00;97990.06;4951131;29;20083;-65
2020/12/29 01:03:11;;;;;;;27.40;14.02;;;;;;;0.27;100.00;97995.03;4950277;28;20035;-66
2020/12/29 01:05:37;;;;;;;28.75;14.50;;;;;;;0.28;100.00;97999.28;4950359;29;20027;-66
2020/12/29 01:08:02;;;;;;;30.58;16.05;;;;;;;0.22;100.00;97998.97;4949861;28;20038;-66
2020/12/29 01:10:28;;;;;;;31.02;14.18;;;;;;;0.18;100.00;98002.94;4952690;28;20027;-65
2020/12/29 01:12:53;;;;;;;27.13;13.80;;;;;;;0.23;100.00;98010.34;4953933;29;20097;-65
2020/12/29 01:15:19;;;;;;;29.65;15.60;;;;;;;0.21;100.00;98013.16;4953896;29;20027;-66
2020/12/29 01:17:45;;;;;;;31.48;15.32;;;;;;;0.18;100.00;98000.31;4952992;28;20031;-65
2020/12/29 01:20:10;;;;;;;29.65;14.68;;;;;;;0.22;100.00;98008.72;4953147;28;20035;-65
2020/12/29 01:22:36;;;;;;;28.70;15.05;;;;;;;0.21;100.00;98014.97;4953657;29;20082;-65
2020/12/29 01:25:03;;;;;;;26.70;15.63;;;;;;;0.24;100.00;98011.97;4953335;29;20038;-66
2020/12/29 01:27:28;;;;;;;29.55;15.07;;;;;;;0.27;100.00;98022.22;4953213;28;20031;-65
2020/12/29 01:29:54;;;;;;;29.40;14.57;;;;;;;0.34;100.00;98024.97;4953123;29;20496;-65
2020/12/29 01:32:19;;;;;;;28.77;14.80;;;;;;;0.34;100.00;98032.88;4940466;28;20036;-66
2020/12/29 01:34:45;;;;;;;28.50;13.95;;;;;;;0.38;100.00;98026.28;4952667;28;20053;-65
2020/12/29 01:37:10;;;;;;;28.17;14.80;;;;;;;0.37;100.00;98033.38;4952204;28;20039;-65
2020/12/29 01:39:36;;;;;;;33.10;15.63;;;;;;;0.37;100.00;98033.38;4952740;29;20031;-65
2020/12/29 01:42:01;;;;;;;30.75;14.77;;;;;;;0.39;100.00;98039.28;4952826;29;20035;-66
2020/12/29 01:44:27;;;;;;;34.63;16.35;;;;;;;0.41;100.00;98044.41;4952858;29;20034;-65
2020/12/29 01:46:52;;;;;;;28.35;15.55;;;;;;;0.40;100.00;98048.03;4952580;28;20035;-65
2020/12/29 01:49:18;;;;;;;27.52;15.57;;;;;;;0.41;100.00;98047.88;4953003;28;20065;-65
2020/12/29 01:51:44;;;;;;;29.48;15.85;;;;;;;0.43;100.00;98040.59;4952270;29;20102;-66
2020/12/29 01:54:10;;;;;;;30.00;15.18;;;;;;;0.49;100.00;98053.09;4952715;29;20370;-66
2020/12/29 01:56:38;;;;;;;28.98;14.98;;;;;;;0.51;100.00;98055.59;4952103;29;20031;-66
2020/12/29 01:59:09;;;;;;;27.23;14.02;;;;;;;0.52;100.00;98054.59;4952634;29;20031;-66
2020/12/29 02:01:42;;;;;;;26.25;15.13;;;;;;;0.53;100.00;98056.22;4952416;28;20054;-66
2020/12/29 02:04:09;;;;;;;28.67;14.88;;;;;;;0.48;100.00;98055.94;4952363;28;20027;-66
2020/12/29 02:06:39;;;;;;;25.50;14.50;;;;;;;0.46;100.00;98068.47;4951879;29;20031;-66
2020/12/29 02:09:06;;;;;;;31.48;15.13;;;;;;;0.47;100.00;98070.13;4952982;28;20507;-66
2020/12/29 02:11:32;;;;;;;32.80;16.77;;;;;;;0.47;100.00;98067.47;4952417;29;20031;-66
2020/12/29 02:13:58;;;;;;;27.45;15.05;;;;;;;0.49;100.00;98076.03;4952702;28;20031;-66
2020/12/29 02:16:24;;;;;;;29.42;15.70;;;;;;;0.54;100.00;98080.78;4951387;28;20515;-65
2020/12/29 02:18:50;;;;;;;35.25;17.73;;;;;;;0.50;100.00;98078.53;4951994;28;20439;-66
2020/12/29 02:21:31;;;;;;;32.08;17.45;;;;;;;0.52;100.00;98081.78;4951072;28;20385;-66
2020/12/29 02:24:17;;;;;;;31.23;17.40;;;;;;;0.56;100.00;98097.28;4951260;28;20051;-66
2020/12/29 02:26:50;;;;;;;30.42;15.82;;;;;;;0.56;100.00;98089.38;4951569;28;20045;-65
2020/12/29 02:29:15;;;;;;;30.27;16.45;;;;;;;0.55;100.00;98096.44;4951767;29;20027;-66
2020/12/29 02:31:59;;;;;;;32.40;17.40;;;;;;;0.54;100.00;98102.72;4951837;29;20031;-66
2020/12/29 02:34:26;;;;;;;31.73;17.45;;;;;;;0.59;100.00;98110.94;4951850;28;20039;-66
2020/12/29 02:36:52;;;;;;;35.40;17.83;;;;;;;0.61;100.00;98100.25;4950652;28;20484;-65
2020/12/29 02:39:17;;;;;;;32.00;17.20;;;;;;;0.63;100.00;98104.34;4951791;28;20046;-65
2020/12/29 02:41:43;;;;;;;30.92;16.65;;;;;;;0.66;100.00;98104.03;4950995;29;20082;-66
2020/12/29 02:44:17;;;;;;;28.98;16.13;;;;;;;0.69;100.00;98110.75;4951556;28;20339;-65
2020/12/29 02:46:51;;;;;;;29.60;16.50;;;;;;;0.66;100.00;98104.03;4950497;29;20082;-66
2020/12/29 02:49:17;;;;;;;30.77;16.02;;;;;;;0.70;100.00;98105.34;4952091;29;20500;-66
2020/12/29 02:51:43;;;;;;;25.95;15.13;;;;;;;0.66;100.00;98096.09;4951561;29;20027;-66
2020/12/29 02:54:11;;;;;;;28.42;15.70;;;;;;;0.58;100.00;98095.31;4951366;28;20114;-66
2020/12/29 02:56:37;;;;;;;30.67;17.10;;;;;;;0.39;100.00;98104.41;4950897;28;20069;-66
2020/12/29 02:59:03;;;;;;;29.10;15.85;;;;;;;0.18;100.00;98108.41;4951918;29;20063;-66
2020/12/29 03:01:29;;;;;;;30.55;16.02;;;;;;;0.24;100.00;98120.91;4951037;28;20028;-66
2020/12/29 03:03:55;;;;;;;33.03;17.83;;;;;;;0.29;100.00;98141.50;4951458;28;20033;-66
2020/12/29 03:06:22;;;;;;;35.55;18.23;;;;;;;0.18;100.00;98145.31;4950273;28;20050;-66
2020/12/29 03:08:50;;;;;;;36.53;18.17;;;;;;;0.17;100.00;98145.50;4951230;29;20035;-65
2020/12/29 03:11:22;;;;;;;34.08;18.00;;;;;;;0.19;100.00;98157.50;4951061;28;20400;-66
2020/12/29 03:13:48;;;;;;;42.10;21.10;;;;;;;0.21;100.00;98152.09;4951571;28;20369;-66
2020/12/29 03:16:13;;;;;;;34.92;18.42;;;;;;;0.21;100.00;98152.91;4948027;28;20696;-66
2020/12/29 03:18:39;;;;;;;42.80;18.70;;;;;;;0.18;100.00;98161.13;4948570;29;20377;-66
2020/12/29 03:21:05;;;;;;;34.65;19.50;;;;;;;0.12;100.00;98161.81;4950970;29;20439;-66
2020/12/29 03:23:30;;;;;;;39.75;19.08;;;;;;;0.07;100.00;98174.66;4950617;29;20349;-66
2020/12/29 03:25:56;;;;;;;34.42;18.55;;;;;;;0.00;100.00;98171.03;4950804;28;20027;-65
2020/12/29 03:28:21;;;;;;;33.72;17.13;;;;;;;-0.07;100.00;98168.22;4950407;29;20046;-66
2020/12/29 03:30:47;;;;;;;50.90;20.63;;;;;;;-0.13;100.00;98173.34;4950823;29;20031;-65
2020/12/29 03:33:13;;;;;;;37.28;18.88;;;;;;;-0.18;100.00;98176.44;4950364;28;20408;-65
2020/12/29 03:35:38;;;;;;;40.50;22.10;;;;;;;-0.21;100.00;98181.22;4950874;29;20416;-66
2020/12/29 03:38:04;;;;;;;36.33;20.02;;;;;;;-0.26;100.00;98181.69;4949161;28;20163;-66
2020/12/29 03:40:29;;;;;;;40.60;18.75;;;;;;;-0.30;100.00;98189.13;4950740;28;20140;-66
2020/12/29 03:42:55;;;;;;;36.25;19.30;;;;;;;-0.35;100.00;98194.06;4950458;28;20459;-65
2020/12/29 03:45:20;;;;;;;40.08;20.45;;;;;;;-0.40;100.00;98196.34;4950881;29;20513;-66
2020/12/29 03:47:46;;;;;;;40.75;21.30;;;;;;;-0.43;100.00;98203.75;4949849;28;20031;-65
2020/12/29 03:50:11;;;;;;;37.90;19.35;;;;;;;-0.43;100.00;98201.94;4950640;29;20034;-66
2020/12/29 03:52:37;;;;;;;44.22;22.52;;;;;;;-0.39;100.00;98208.53;4949553;28;20031;-65
2020/12/29 03:55:03;;;;;;;47.03;21.58;;;;;;;-0.37;100.00;98213.63;4950492;29;20484;-66
2020/12/29 03:57:28;;;;;;;40.83;20.70;;;;;;;-0.34;100.00;98208.88;4950149;29;20023;-66
2020/12/29 03:59:54;;;;;;;40.47;20.73;;;;;;;-0.28;100.00;98210.03;4950089;28;20034;-67
2020/12/29 04:02:19;;;;;;;50.60;21.65;;;;;;;-0.19;100.00;98221.41;4950741;29;20129;-65
2020/12/29 04:04:45;;;;;;;44.95;21.92;;;;;;;-0.13;100.00;98216.31;4949828;28;20031;-66
2020/12/29 04:07:10;;;;;;;43.40;22.08;;;;;;;-0.03;100.00;98218.81;4949250;28;20031;-66
2020/12/29 04:09:36;;;;;;;41.92;20.15;;;;;;;0.03;100.00;98217.31;4950169;28;20027;-66
2020/12/29 04:12:01;;;;;;;43.00;21.67;;;;;;;0.08;100.00;98221.13;4950420;28;20492;-66
2020/12/29 04:14:27;;;;;;;45.90;21.25;;;;;;;0.11;100.00;98225.25;4949665;28;20341;-66
2020/12/29 04:16:55;;;;;;;35.78;19.08;;;;;;;0.16;100.00;98225.59;4950076;29;20082;-66
2020/12/29 04:19:20;;;;;;;39.40;19.75;;;;;;;0.22;100.00;98231.03;4949422;28;20042;-67
2020/12/29 04:21:46;;;;;;;39.63;19.95;;;;;;;0.26;100.00;98231.53;4950247;29;20122;-66
2020/12/29 04:24:11;;;;;;;32.15;18.85;;;;;;;0.31;100.00;98236.31;4949591;28;20035;-65
2020/12/29 04:26:37;;;;;;;38.58;19.08;;;;;;;0.35;100.00;98237.59;4949519;28;20035;-66
2020/12/29 04:29:02;;;;;;;34.60;18.00;;;;;;;0.38;100.00;98232.00;4949355;28;20035;-66
2020/12/29 04:31:28;;;;;;;36.78;19.63;;;;;;;0.41;100.00;98239.59;4942498;28;20027;-65
2020/12/29 04:33:53;;;;;;;31.42;17.70;;;;;;;0.43;100.00;98241.06;4944460;29;20522;-65
2020/12/29 04:36:19;;;;;;;34.80;18.95;;;;;;;0.44;100.00;98237.44;4949032;28;20119;-66
2020/12/29 04:38:44;;;;;;;38.80;21.25;;;;;;;0.43;100.00;98243.72;4949975;28;20181;-66
2020/12/29 04:41:10;;;;;;;40.25;21.77;;;;;;;0.41;100.00;98253.63;4950682;28;20054;-66
2020/12/29 04:43:35;;;;;;;40.08;20.80;;;;;;;0.40;100.00;98264.31;4949946;28;20062;-66
2020/12/29 04:46:03;;;;;;;44.55;19.70;;;;;;;0.36;100.00;98263.00;4954354;28;20042;-66
2020/12/29 04:48:30;;;;;;;40.95;19.48;;;;;;;0.33;100.00;98263.31;4953858;29;20031;-66
2020/12/29 04:51:03;;;;;;;39.72;19.63;;;;;;;0.30;100.00;98274.19;4954185;28;20031;-66
2020/12/29 04:53:31;;;;;;;39.75;21.13;;;;;;;0.26;100.00;98271.06;4954044;29;20183;-65
2020/12/29 04:56:07;;;;;;;41.03;20.35;;;;;;;0.21;100.00;98271.56;4953749;29;20400;-66
2020/12/29 04:58:34;;;;;;;39.78;20.88;;;;;;;0.21;100.00;98283.94;4953199;28;20034;-66
2020/12/29 05:01:05;;;;;;;39.67;20.02;;;;;;;0.21;100.00;98284.75;4953678;28;20031;-66
2020/12/29 05:03:46;;;;;;;40.65;20.00;;;;;;;0.21;100.00;98292.66;4953398;28;20109;-66
2020/12/29 05:06:13;;;;;;;35.40;18.58;;;;;;;0.23;100.00;98290.66;4953279;29;20028;-65
2020/12/29 05:08:45;;;;;;;41.67;20.80;;;;;;;0.26;100.00;98294.81;4952085;29;20063;-66
2020/12/29 05:11:11;;;;;;;41.95;20.08;;;;;;;0.29;100.00;98298.91;4953511;28;20511;-65
2020/12/29 05:13:36;;;;;;;37.28;18.75;;;;;;;0.33;100.00;98303.72;4954032;28;20035;-65
2020/12/29 05:16:02;;;;;;;40.00;20.17;;;;;;;0.38;100.00;98308.50;4952970;28;20438;-66
2020/12/29 05:18:28;;;;;;;34.35;19.48;;;;;;;0.43;100.00;98311.47;4953345;28;20043;-67
2020/12/29 05:20:56;;;;;;;31.17;17.85;;;;;;;0.47;100.00;98310.97;4953202;28;20038;-66
2020/12/29 05:23:21;;;;;;;35.08;18.45;;;;;;;0.52;100.00;98310.50;4941397;29;20077;-66
2020/12/29 05:25:48;;;;;;;40.42;19.45;;;;;;;0.56;100.00;98309.19;4953054;29;20102;-66
2020/12/29 05:28:14;;;;;;;32.05;17.42;;;;;;;0.60;100.00;98317.56;4939646;29;20027;-66
2020/12/29 05:30:40;;;;;;;28.60;16.20;;;;;;;0.61;100.00;98316.59;4951144;28;20074;-66
2020/12/29 05:33:12;;;;;;;29.85;17.27;;;;;;;0.65;100.00;98318.75;4941849;29;20373;-65
2020/12/29 05:35:39;;;;;;;30.77;16.42;;;;;;;0.68;100.00;98321.03;4952802;29;20039;-66
2020/12/29 05:38:07;;;;;;;32.85;17.35;;;;;;;0.69;100.00;98322.69;4952628;29;20035;-65
2020/12/29 05:40:33;;;;;;;32.45;16.08;;;;;;;0.73;100.00;98325.81;4952485;28;20056;-66
2020/12/29 05:43:00;;;;;;;31.67;15.27;;;;;;;0.76;100.00;98326.31;4952762;29;20024;-65
2020/12/29 05:45:27;;;;;;;36.35;16.60;;;;;;;0.81;100.00;98332.94;4952274;28;20035;-67
2020/12/29 05:47:54;;;;;;;28.65;14.85;;;;;;;0.84;100.00;98329.94;4951742;29;20078;-66
2020/12/29 05:50:21;;;;;;;34.17;16.83;;;;;;;0.90;100.00;98334.56;4952440;29;20114;-67
2020/12/29 05:52:52;;;;;;;30.77;14.95;;;;;;;0.89;100.00;98338.19;4952964;28;20492;-66
2020/12/29 05:55:18;;;;;;;27.20;14.30;;;;;;;0.92;100.00;98340.50;4952165;28;20035;-66
2020/12/29 05:57:45;;;;;;;24.90;13.68;;;;;;;0.92;100.00;98343.16;4951715;28;20117;-65
2020/12/29 06:00:11;;;;;;;28.23;14.48;;;;;;;0.96;100.00;98344.47;4952725;29;20027;-66
2020/12/29 06:02:48;;;;;;;27.20;13.63;;;;;;;0.99;100.00;98347.59;4952896;29;20023;-66
2020/12/29 06:05:14;;;;;;;33.78;13.52;;;;;;;1.04;100.00;98357.66;4952397;29;20024;-65
2020/12/29 06:07:42;;;;;;;25.38;11.98;;;;;;;1.11;100.00;98363.13;4951798;29;20157;-66
2020/12/29 06:10:12;;;;;;;24.85;12.43;;;;;;;1.14;100.00;98362.75;4952452;28;20027;-66
2020/12/29 06:12:44;;;;;;;25.60;12.27;;;;;;;1.16;100.00;98372.19;4952049;29;20408;-66
2020/12/29 06:15:11;;;;;;;25.85;11.75;;;;;;;1.20;100.00;98375.28;4952432;29;20031;-66
2020/12/29 06:17:43;;;;;;;25.08;11.95;;;;;;;1.22;100.00;98387.34;4951292;29;20035;-67
2020/12/29 06:20:16;;;;;;;28.02;11.88;;;;;;;1.25;100.00;98384.34;4952133;28;20035;-67
2020/12/29 06:22:44;;;;;;;28.08;12.52;;;;;;;1.31;100.00;98384.72;4952017;28;21889;-66
2020/12/29 06:25:16;;;;;;;24.20;12.07;;;;;;;1.36;100.00;98392.97;4952599;28;20031;-66
2020/12/29 06:27:51;;;;;;;23.40;11.70;;;;;;;1.39;100.00;98408.47;4951919;28;20031;-66
2020/12/29 06:30:20;;;;;;;23.02;12.27;;;;;;;1.46;100.00;98417.38;4952589;28;20166;-67
2020/12/29 06:32:49;;;;;;;22.10;11.52;;;;;;;1.49;100.00;98422.31;4938913;28;20039;-66
2020/12/29 06:35:16;;;;;;;22.42;11.10;;;;;;;1.49;100.00;98431.06;4952157;28;20027;-66
2020/12/29 06:37:41;;;;;;;29.45;11.95;;;;;;;1.52;100.00;98424.63;4951160;28;20045;-66
2020/12/29 06:40:08;;;;;;;26.33;12.48;;;;;;;1.51;100.00;98433.56;4952381;28;20027;-66
2020/12/29 06:42:41;;;;;;;24.92;11.68;;;;;;;1.51;100.00;98431.75;4951578;29;20033;-66
2020/12/29 06:45:09;;;;;;;26.17;13.65;;;;;;;1.52;100.00;98436.03;4951778;28;20547;-66
2020/12/29 06:47:38;;;;;;;28.95;12.75;;;;;;;1.52;100.00;98438.66;4950697;29;20035;-66
2020/12/29 06:50:22;;;;;;;27.35;14.25;;;;;;;1.52;100.00;98446.59;4951966;28;20027;-66
2020/12/29 06:53:03;;;;;;;28.48;15.45;;;;;;;1.50;100.00;98442.47;4951648;28;20031;-66
2020/12/29 06:55:45;;;;;;;34.45;15.38;;;;;;;1.52;100.00;98446.59;4951496;29;20027;-66
2020/12/29 06:58:29;;;;;;;35.40;17.30;;;;;;;1.50;100.00;98450.38;4950543;28;20655;-66
2020/12/29 07:01:24;;;;;;;44.00;20.35;;;;;;;1.53;100.00;98452.72;4951758;29;20488;-66
2020/12/29 07:04:07;;;;;;;48.03;20.90;;;;;;;1.54;100.00;98463.09;4951522;29;20063;-66
2020/12/29 07:06:35;;;;;;;46.35;21.45;;;;;;;1.55;100.00;98461.28;4950947;28;20355;-66
2020/12/29 07:09:08;;;;;;;50.70;20.30;;;;;;;1.55;100.00;98467.38;4950430;28;20051;-66
2020/12/29 07:11:34;;;;;;;44.53;21.08;;;;;;;1.57;100.00;98475.16;4951179;28;20042;-67
2020/12/29 07:14:03;;;;;;;45.47;20.08;;;;;;;1.64;100.00;98475.31;4951121;28;20082;-66
2020/12/29 07:16:28;;;;;;;44.90;19.88;;;;;;;1.63;100.00;98485.06;4950317;28;20496;-66
2020/12/29 07:19:08;;;;;;;45.60;21.20;;;;;;;1.66;100.00;98494.50;4950841;28;20101;-66
2020/12/29 07:21:34;;;;;;;52.70;22.50;;;;;;;1.68;100.00;98495.16;4950698;28;20106;-66
2020/12/29 07:24:04;;;;;;;57.63;21.30;;;;;;;1.69;100.00;98497.63;4950671;29;20118;-67
2020/12/29 07:26:36;;;;;;;53.22;22.20;;;;;;;1.70;100.00;98499.25;4937922;29;20035;-67
2020/12/29 07:29:01;;;;;;;48.45;21.67;;;;;;;1.72;100.00;98499.94;4950432;29;20329;-66
2020/12/29 07:31:27;;;;;;;47.83;22.42;;;;;;;1.72;100.00;98504.41;4943335;29;20106;-66
2020/12/29 07:33:54;;;;;;;50.75;22.13;;;;;;;1.70;100.00;98509.00;4945232;29;20039;-66
2020/12/29 07:36:21;;;;;;;51.50;23.15;;;;;;;1.74;100.00;98519.09;4950500;29;20251;-66
2020/12/29 07:38:48;;;;;;;50.25;22.58;;;;;;;1.67;100.00;98518.09;4950234;28;20031;-66
2020/12/29 07:41:16;;;;;;;57.90;23.83;;;;;;;1.65;100.00;98525.38;4950807;29;20027;-66
2020/12/29 07:43:42;;;;;;;52.97;24.00;;;;;;;1.65;100.00;98519.25;4949615;28;20651;-66
2020/12/29 07:46:09;;;;;;;67.13;26.73;;;;;;;1.59;100.00;98530.50;4951011;29;20033;-67
2020/12/29 07:48:35;;;;;;;58.55;25.40;;;;;;;1.61;100.00;98533.78;4949749;28;20551;-66
2020/12/29 07:51:01;;;;;;;67.03;26.20;;;;;;;1.65;100.00;98533.28;4951103;29;20031;-67
2020/12/29 07:53:26;;;;;;;56.05;25.40;;;;;;;1.60;100.00;98543.53;4949690;29;20452;-66
2020/12/29 07:55:52;;;;;;;62.83;24.60;;;;;;;1.61;100.00;98544.34;4950392;29;20076;-66
2020/12/29 07:58:18;;;;;;;63.28;26.55;;;;;;;1.63;100.00;98542.38;4949376;28;20508;-66
2020/12/29 08:00:44;;;;;;;64.07;26.77;;;;;;;1.64;100.00;98552.78;4950632;29;20067;-66
2020/12/29 08:03:10;;;;;;;67.28;27.73;;;;;;;1.69;100.00;98553.13;4949961;29;20031;-66
2020/12/29 08:05:36;;;;;;;71.05;27.92;;;;;;;1.71;100.00;98563.56;4950149;28;20036;-66
2020/12/29 08:08:04;;;;;;;63.28;28.40;;;;;;;1.63;100.00;98572.28;4949472;29;20027;-66
2020/12/29 08:10:32;;;;;;;72.40;27.60;;;;;;;1.55;100.00;98577.56;4949978;29;20049;-66
2020/12/29 08:13:00;;;;;;;71.45;29.33;;;;;;;1.61;100.00;98587.50;4949465;28;20031;-66
2020/12/29 08:15:30;;;;;;;69.32;28.33;;;;;;;1.58;100.00;98594.91;4949993;28;20484;-66
2020/12/29 08:18:10;;;;;;;70.03;27.75;;;;;;;1.62;100.00;98601.53;4949297;28;20035;-66
2020/12/29 08:20:57;;;;;;;77.78;29.67;;;;;;;1.75;100.00;98605.31;4949335;29;20534;-66
2020/12/29 08:23:25;;;;;;;67.28;26.10;;;;;;;1.93;100.00;98607.00;4949843;28;20082;-66
2020/12/29 08:25:54;;;;;;;66.22;26.20;;;;;;;1.91;100.00;98607.16;4949705;28;20385;-66
2020/12/29 08:28:22;;;;;;;67.50;26.02;;;;;;;1.89;100.00;98614.41;4949812;29;20046;-66
2020/12/29 08:30:48;;;;;;;61.38;25.40;;;;;;;1.95;100.00;98619.03;4949820;28;20058;-66
2020/12/29 08:33:18;;;;;;;69.68;25.95;;;;;;;2.10;100.00;98634.25;4949985;28;20051;-66
2020/12/29 08:35:46;;;;;;;65.93;24.38;;;;;;;2.13;100.00;98631.28;4949905;28;20069;-66
2020/12/29 08:41:15;;;;;;;59.58;21.05;;;;;;;2.19;100.00;98643.84;4949604;28;20070;-67
2020/12/29 08:43:42;;;;;;;57.85;22.25;;;;;;;2.25;100.00;98657.22;4949731;28;20027;-66
2020/12/29 08:46:09;;;;;;;57.83;22.75;;;;;;;2.30;100.00;98662.00;4949549;28;20035;-68
2020/12/29 08:48:35;;;;;;;52.40;20.35;;;;;;;2.33;100.00;98667.81;4949610;28;20039;-66
2020/12/29 08:51:16;;;;;;;54.55;24.08;;;;;;;2.36;100.00;98677.25;4949879;28;21183;-66
2020/12/29 08:53:41;;;;;;;56.95;21.15;;;;;;;2.44;100.00;98676.41;4949598;29;20028;-66
2020/12/29 08:56:20;;;;;;;52.55;20.90;;;;;;;2.49;100.00;98688.13;4950206;28;20404;-66
2020/12/29 08:58:47;;;;;;;51.17;19.52;;;;;;;2.54;100.00;98700.88;4949614;28;20031;-67
2020/12/29 09:01:30;;;;;;;50.38;20.77;;;;;;;2.59;100.00;98704.66;4949779;28;20163;-66
2020/12/29 09:03:55;;;;;;;45.72;18.77;;;;;;;2.61;100.00;98709.81;4939204;29;20079;-66
2020/12/29 09:06:21;;;;;;;48.47;19.10;;;;;;;2.65;100.00;98712.94;4948857;29;20035;-66
2020/12/29 09:08:46;;;;;;;56.15;20.33;;;;;;;2.66;100.00;98715.44;4949810;29;20035;-66
2020/12/29 09:11:13;;;;;;;260.75;67.00;;;;;;;2.74;100.00;98722.53;4949532;28;20086;-66
2020/12/29 09:14:01;;;;;;;65.30;24.73;;;;;;;2.73;100.00;98732.28;4949789;29;20046;-66
2020/12/29 09:16:27;;;;;;;46.25;19.23;;;;;;;2.70;100.00;98727.31;4948549;29;20039;-66
2020/12/29 09:18:52;;;;;;;51.65;19.52;;;;;;;2.70;100.00;98737.09;4950054;28;20162;-66
2020/12/29 09:21:20;;;;;;;48.90;18.13;;;;;;;2.69;100.00;98740.72;4949238;29;20023;-66
2020/12/29 09:23:56;;;;;;;50.72;18.42;;;;;;;2.74;100.00;98749.81;4949493;28;20531;-66
2020/12/29 09:26:21;;;;;;;51.42;19.80;;;;;;;2.75;100.00;98746.16;4948746;28;20041;-66
2020/12/29 09:28:47;;;;;;;47.38;18.75;;;;;;;2.74;100.00;98755.13;4949934;29;20404;-66
2020/12/29 09:31:13;;;;;;;48.13;17.42;;;;;;;2.81;100.00;98756.13;4950460;28;20038;-67
2020/12/29 09:33:39;;;;;;;50.08;18.67;;;;;;;2.77;100.00;98752.16;4953050;28;20032;-66
2020/12/29 09:36:07;;;;;;;43.95;16.48;;;;;;;2.76;100.00;98763.75;4952587;29;20109;-67
2020/12/29 09:38:33;;;;;;;57.28;21.05;;;;;;;2.78;100.00;98767.03;4952748;28;20135;-66
2020/12/29 09:41:00;;;;;;;45.03;18.80;;;;;;;2.82;100.00;98767.53;4952337;28;20055;-66
2020/12/29 09:43:26;;;;;;;45.28;16.75;;;;;;;2.88;100.00;98771.34;4953266;28;20050;-66
2020/12/29 09:45:52;;;;;;;45.25;17.33;;;;;;;2.90;100.00;98771.97;4952404;28;20254;-66
2020/12/29 09:48:18;;;;;;;48.25;17.42;;;;;;;2.92;100.00;98780.59;4952751;28;20110;-66
2020/12/29 09:50:44;;;;;;;44.47;17.02;;;;;;;2.96;100.00;98785.41;4952357;28;20507;-67
2020/12/29 09:53:10;;;;;;;35.50;15.27;;;;;;;3.00;100.00;98785.88;4952847;29;20032;-66
2020/12/29 09:55:38;;;;;;;41.42;15.82;;;;;;;3.04;100.00;98797.78;4952439;28;20386;-66
2020/12/29 09:58:03;;;;;;;41.85;16.05;;;;;;;3.11;100.00;98804.06;4951984;28;20027;-67
2020/12/29 10:00:29;;;;;;;42.58;15.38;;;;;;;3.08;100.00;98794.63;4952334;28;20043;-67
2020/12/29 10:02:57;;;;;;;40.00;15.65;;;;;;;3.07;100.00;98800.13;4952309;28;20035;-67
2020/12/29 10:05:23;;;;;;;39.83;14.95;;;;;;;3.10;100.00;98803.22;4951781;28;20070;-67
2020/12/29 10:07:50;;;;;;;34.70;13.65;;;;;;;3.22;100.00;98810.84;4951792;29;20082;-67
2020/12/29 10:10:15;;;;;;;41.05;16.27;;;;;;;3.24;100.00;98809.69;4952782;29;20412;-67
2020/12/29 10:12:41;;;;;;;38.22;14.95;;;;;;;3.25;100.00;98808.69;4951939;28;20484;-67
2020/12/29 10:15:07;;;;;;;38.97;14.50;;;;;;;3.34;100.00;98815.63;4952285;29;20073;-66
2020/12/29 10:17:32;;;;;;;34.38;14.48;;;;;;;3.47;100.00;98817.75;4951358;28;20027;-67
2020/12/29 10:19:58;;;;;;;36.92;14.27;;;;;;;3.48;100.00;98829.19;4952021;28;20039;-67
2020/12/29 10:22:26;;;;;;;40.55;15.13;;;;;;;3.43;100.00;98827.03;4951949;28;20468;-67
2020/12/29 10:24:52;;;;;;;31.40;13.05;;;;;;;3.53;100.00;98834.78;4939554;29;20036;-66
2020/12/29 10:27:18;;;;;;;36.05;13.52;;;;;;;3.51;100.00;98842.06;4951377;28;20066;-67
2020/12/29 10:29:43;;;;;;;31.27;13.57;;;;;;;3.48;100.00;98851.22;4951875;28;20027;-67
2020/12/29 10:32:09;;;;;;;32.50;13.65;;;;;;;3.54;100.00;98842.56;4951600;29;20408;-66
2020/12/29 10:34:34;;;;;;;41.15;16.75;;;;;;;3.71;100.00;98851.28;4951830;28;20035;-66
2020/12/29 10:37:00;;;;;;;35.97;12.65;;;;;;;3.79;100.00;98851.28;4950827;28;20039;-66
2020/12/29 10:39:25;;;;;;;40.42;18.35;;;;;;;3.76;100.00;98859.56;4951916;28;20031;-66
2020/12/29 10:41:51;;;;;;;33.60;13.82;;;;;;;3.75;100.00;98852.59;4950939;28;20034;-67
2020/12/29 10:44:17;;;;;;;35.70;15.38;;;;;;;3.86;100.00;98859.38;4951555;28;20156;-66
2020/12/29 10:46:48;;;;;;;41.20;18.17;;;;;;;3.99;100.00;98858.84;4951434;29;20553;-66
2020/12/29 10:49:14;;;;;;;31.50;13.73;;;;;;;3.93;100.00;98856.88;4951936;29;20507;-66
2020/12/29 10:51:40;;;;;;;34.90;15.52;;;;;;;3.86;100.00;98862.84;4951541;29;20028;-66
2020/12/29 10:54:06;;;;;;;29.77;13.90;;;;;;;3.81;100.00;98870.47;4951464;28;20031;-67
2020/12/29 10:56:32;;;;;;;37.35;14.85;;;;;;;3.82;100.00;98879.31;4950909;28;20038;-66
2020/12/29 10:58:58;;;;;;;35.97;14.27;;;;;;;3.71;100.00;98877.00;4951319;28;20031;-66
2020/12/29 11:01:24;;;;;;;39.95;14.73;;;;;;;3.68;100.00;98886.13;4951181;28;20028;-66
2020/12/29 11:03:51;;;;;;;37.33;15.52;;;;;;;3.64;100.00;98890.09;4950812;28;20031;-66
2020/12/29 11:06:19;;;;;;;31.50;14.13;;;;;;;3.59;100.00;98887.97;4950613;28;20035;-66
2020/12/29 11:08:45;;;;;;;39.45;14.52;;;;;;;3.58;100.00;98888.97;4950858;29;20031;-66
2020/12/29 11:11:11;;;;;;;38.50;16.05;;;;;;;3.58;100.00;98894.28;4951482;28;20388;-66
2020/12/29 11:13:37;;;;;;;39.72;15.15;;;;;;;3.60;100.00;98896.75;4951016;28;20114;-66
2020/12/29 11:16:03;;;;;;;39.35;15.35;;;;;;;3.63;100.00;98904.38;4951203;28;20567;-66
2020/12/29 11:18:28;;;;;;;39.67;16.20;;;;;;;3.61;100.00;98895.75;4949676;28;20090;-66
2020/12/29 11:20:54;;;;;;;40.17;15.43;;;;;;;3.68;100.00;98895.91;4951157;28;20488;-66
2020/12/29 11:23:19;;;;;;;38.35;14.25;;;;;;;3.84;100.00;98898.50;4951016;29;20679;-66